sensor_id;sensor_type;location;lat;lon;timestamp;temperature;humidity
68922;DHT22;55959;51.244;5.724;2023-07-20T00:01:47;20.90;60.10
68922;DHT22;55959;51.244;5.724;2023-07-20T00:04:14;20.90;60.20
68922;DHT22;55959;51.244;5.724;2023-07-20T00:06:42;20.90;60.20
68922;DHT22;55959;51.244;5.724;2023-07-20T00:09:07;20.90;60.40
68922;DHT22;55959;51.244;5.724;2023-07-20T00:11:36;20.90;60.50
68922;DHT22;55959;51.244;5.724;2023-07-20T00:14:05;20.90;60.60
68922;DHT22;55959;51.244;5.724;2023-07-20T00:16:31;20.90;60.60
68922;DHT22;55959;51.244;5.724;2023-07-20T00:18:57;20.80;60.70
68922;DHT22;55959;51.244;5.724;2023-07-20T00:21:23;20.80;60.80
68922;DHT22;55959;51.244;5.724;2023-07-20T00:23:50;20.80;60.80
68922;DHT22;55959;51.244;5.724;2023-07-20T00:26:16;20.80;60.90
68922;DHT22;55959;51.244;5.724;2023-07-20T00:28:41;20.80;60.90
68922;DHT22;55959;51.244;5.724;2023-07-20T00:31:08;20.70;60.90
68922;DHT22;55959;51.244;5.724;2023-07-20T00:33:34;20.70;61.00
68922;DHT22;55959;51.244;5.724;2023-07-20T00:36:00;20.70;61.20
68922;DHT22;55959;51.244;5.724;2023-07-20T00:38:26;20.70;61.30
68922;DHT22;55959;51.244;5.724;2023-07-20T00:40:51;20.60;61.40
68922;DHT22;55959;51.244;5.724;2023-07-20T00:43:17;20.60;61.40
68922;DHT22;55959;51.244;5.724;2023-07-20T00:45:44;20.60;61.60
68922;DHT22;55959;51.244;5.724;2023-07-20T00:48:10;20.60;61.70
68922;DHT22;55959;51.244;5.724;2023-07-20T00:50:36;20.50;61.70
68922;DHT22;55959;51.244;5.724;2023-07-20T00:53:03;20.50;61.70
68922;DHT22;55959;51.244;5.724;2023-07-20T00:55:30;20.50;61.80
68922;DHT22;55959;51.244;5.724;2023-07-20T00:57:57;20.40;61.80
68922;DHT22;55959;51.244;5.724;2023-07-20T01:00:24;20.50;61.90
68922;DHT22;55959;51.244;5.724;2023-07-20T01:02:51;20.40;61.80
68922;DHT22;55959;51.244;5.724;2023-07-20T01:05:17;20.40;62.10
68922;DHT22;55959;51.244;5.724;2023-07-20T01:07:53;20.40;62.20
68922;DHT22;55959;51.244;5.724;2023-07-20T01:10:31;20.30;62.20
68922;DHT22;55959;51.244;5.724;2023-07-20T01:13:01;20.40;62.30
68922;DHT22;55959;51.244;5.724;2023-07-20T01:15:28;20.30;62.40
68922;DHT22;55959;51.244;5.724;2023-07-20T01:17:54;20.30;62.60
68922;DHT22;55959;51.244;5.724;2023-07-20T01:20:21;20.30;62.70
68922;DHT22;55959;51.244;5.724;2023-07-20T01:28:54;20.20;63.20
68922;DHT22;55959;51.244;5.724;2023-07-20T01:31:33;20.20;63.40
68922;DHT22;55959;51.244;5.724;2023-07-20T01:34:01;20.20;63.50
68922;DHT22;55959;51.244;5.724;2023-07-20T01:36:33;20.10;63.60
68922;DHT22;55959;51.244;5.724;2023-07-20T01:39:00;20.10;63.80
68922;DHT22;55959;51.244;5.724;2023-07-20T01:41:27;20.10;63.80
68922;DHT22;55959;51.244;5.724;2023-07-20T01:43:52;20.10;64.00
68922;DHT22;55959;51.244;5.724;2023-07-20T01:46:18;20.10;64.00
68922;DHT22;55959;51.244;5.724;2023-07-20T01:48:44;20.10;64.00
68922;DHT22;55959;51.244;5.724;2023-07-20T01:51:10;20.10;64.00
68922;DHT22;55959;51.244;5.724;2023-07-20T01:53:37;20.10;64.00
68922;DHT22;55959;51.244;5.724;2023-07-20T01:56:03;20.10;64.00
68922;DHT22;55959;51.244;5.724;2023-07-20T01:58:29;20.00;64.00
68922;DHT22;55959;51.244;5.724;2023-07-20T02:00:57;20.10;64.00
68922;DHT22;55959;51.244;5.724;2023-07-20T02:03:23;20.00;64.00
68922;DHT22;55959;51.244;5.724;2023-07-20T02:05:51;20.00;64.00
68922;DHT22;55959;51.244;5.724;2023-07-20T02:08:16;20.00;64.00
68922;DHT22;55959;51.244;5.724;2023-07-20T02:10:48;20.00;64.00
68922;DHT22;55959;51.244;5.724;2023-07-20T02:13:14;20.00;64.20
68922;DHT22;55959;51.244;5.724;2023-07-20T02:15:41;20.00;64.20
68922;DHT22;55959;51.244;5.724;2023-07-20T02:18:07;20.00;64.40
68922;DHT22;55959;51.244;5.724;2023-07-20T02:20:34;20.00;64.40
68922;DHT22;55959;51.244;5.724;2023-07-20T02:23:03;20.00;64.60
68922;DHT22;55959;51.244;5.724;2023-07-20T02:25:29;20.00;64.60
68922;DHT22;55959;51.244;5.724;2023-07-20T02:27:56;19.90;64.60
68922;DHT22;55959;51.244;5.724;2023-07-20T02:30:22;19.90;64.70
68922;DHT22;55959;51.244;5.724;2023-07-20T02:32:48;19.90;64.80
68922;DHT22;55959;51.244;5.724;2023-07-20T02:35:15;19.90;65.00
68922;DHT22;55959;51.244;5.724;2023-07-20T02:37:44;19.90;65.20
68922;DHT22;55959;51.244;5.724;2023-07-20T02:40:10;19.90;65.30
68922;DHT22;55959;51.244;5.724;2023-07-20T02:42:36;19.90;65.40
68922;DHT22;55959;51.244;5.724;2023-07-20T02:45:02;19.90;65.40
68922;DHT22;55959;51.244;5.724;2023-07-20T02:47:29;19.90;65.40
68922;DHT22;55959;51.244;5.724;2023-07-20T02:49:55;19.90;65.40
68922;DHT22;55959;51.244;5.724;2023-07-20T02:52:22;19.90;66.40
68922;DHT22;55959;51.244;5.724;2023-07-20T02:54:49;20.00;65.60
68922;DHT22;55959;51.244;5.724;2023-07-20T02:57:15;19.90;65.60
68922;DHT22;55959;51.244;5.724;2023-07-20T02:59:40;20.00;65.80
68922;DHT22;55959;51.244;5.724;2023-07-20T03:02:06;20.00;65.80
68922;DHT22;55959;51.244;5.724;2023-07-20T03:04:35;20.00;66.00
68922;DHT22;55959;51.244;5.724;2023-07-20T03:07:04;19.90;66.00
68922;DHT22;55959;51.244;5.724;2023-07-20T03:09:30;20.00;66.10
68922;DHT22;55959;51.244;5.724;2023-07-20T03:11:55;20.00;66.10
68922;DHT22;55959;51.244;5.724;2023-07-20T03:14:22;20.00;66.40
68922;DHT22;55959;51.244;5.724;2023-07-20T03:16:49;20.00;66.40
68922;DHT22;55959;51.244;5.724;2023-07-20T03:19:15;20.00;66.40
68922;DHT22;55959;51.244;5.724;2023-07-20T03:21:40;20.00;66.40
68922;DHT22;55959;51.244;5.724;2023-07-20T03:24:10;20.00;66.40
68922;DHT22;55959;51.244;5.724;2023-07-20T03:26:36;20.00;66.40
68922;DHT22;55959;51.244;5.724;2023-07-20T03:29:03;20.00;66.70
68922;DHT22;55959;51.244;5.724;2023-07-20T03:31:29;20.00;66.80
68922;DHT22;55959;51.244;5.724;2023-07-20T03:33:55;20.00;67.00
68922;DHT22;55959;51.244;5.724;2023-07-20T03:36:21;20.00;67.00
68922;DHT22;55959;51.244;5.724;2023-07-20T03:38:48;20.00;67.10
68922;DHT22;55959;51.244;5.724;2023-07-20T03:41:13;20.00;67.00
68922;DHT22;55959;51.244;5.724;2023-07-20T03:43:41;20.00;67.10
68922;DHT22;55959;51.244;5.724;2023-07-20T03:46:07;19.90;67.00
68922;DHT22;55959;51.244;5.724;2023-07-20T03:48:33;19.90;67.00
68922;DHT22;55959;51.244;5.724;2023-07-20T03:50:59;20.00;67.10
68922;DHT22;55959;51.244;5.724;2023-07-20T03:53:25;19.90;67.00
68922;DHT22;55959;51.244;5.724;2023-07-20T03:55:52;19.90;67.00
68922;DHT22;55959;51.244;5.724;2023-07-20T03:58:20;19.90;67.00
68922;DHT22;55959;51.244;5.724;2023-07-20T04:00:48;19.90;67.00
68922;DHT22;55959;51.244;5.724;2023-07-20T04:03:15;19.90;67.20
68922;DHT22;55959;51.244;5.724;2023-07-20T04:05:42;19.90;67.00
68922;DHT22;55959;51.244;5.724;2023-07-20T04:08:09;19.90;67.00
68922;DHT22;55959;51.244;5.724;2023-07-20T04:10:36;19.90;67.10
68922;DHT22;55959;51.244;5.724;2023-07-20T04:13:02;19.90;67.00
68922;DHT22;55959;51.244;5.724;2023-07-20T04:15:30;19.90;66.90
68922;DHT22;55959;51.244;5.724;2023-07-20T04:17:56;19.90;67.00
68922;DHT22;55959;51.244;5.724;2023-07-20T04:20:23;19.90;66.90
68922;DHT22;55959;51.244;5.724;2023-07-20T04:22:49;19.80;66.80
68922;DHT22;55959;51.244;5.724;2023-07-20T04:25:15;19.80;67.00
68922;DHT22;55959;51.244;5.724;2023-07-20T04:27:41;19.80;67.00
68922;DHT22;55959;51.244;5.724;2023-07-20T04:30:08;19.80;67.10
68922;DHT22;55959;51.244;5.724;2023-07-20T04:32:34;19.80;67.20
68922;DHT22;55959;51.244;5.724;2023-07-20T04:35:00;19.80;67.20
68922;DHT22;55959;51.244;5.724;2023-07-20T04:37:26;19.80;67.30
68922;DHT22;55959;51.244;5.724;2023-07-20T04:39:51;19.80;67.20
68922;DHT22;55959;51.244;5.724;2023-07-20T04:42:18;19.80;67.40
68922;DHT22;55959;51.244;5.724;2023-07-20T04:44:45;19.80;67.40
68922;DHT22;55959;51.244;5.724;2023-07-20T04:47:11;19.70;67.40
68922;DHT22;55959;51.244;5.724;2023-07-20T04:49:38;19.70;67.50
68922;DHT22;55959;51.244;5.724;2023-07-20T04:52:04;19.80;67.70
68922;DHT22;55959;51.244;5.724;2023-07-20T04:54:30;19.70;67.70
68922;DHT22;55959;51.244;5.724;2023-07-20T04:56:56;19.80;67.80
68922;DHT22;55959;51.244;5.724;2023-07-20T04:59:22;19.80;68.00
68922;DHT22;55959;51.244;5.724;2023-07-20T05:01:48;19.70;68.10
68922;DHT22;55959;51.244;5.724;2023-07-20T05:04:14;19.80;68.20
68922;DHT22;55959;51.244;5.724;2023-07-20T05:06:40;19.70;68.20
68922;DHT22;55959;51.244;5.724;2023-07-20T05:09:05;19.80;68.30
68922;DHT22;55959;51.244;5.724;2023-07-20T05:11:32;19.70;68.30
68922;DHT22;55959;51.244;5.724;2023-07-20T05:13:58;19.80;68.40
68922;DHT22;55959;51.244;5.724;2023-07-20T05:16:23;19.80;68.40
68922;DHT22;55959;51.244;5.724;2023-07-20T05:18:49;19.80;68.40
68922;DHT22;55959;51.244;5.724;2023-07-20T05:21:15;19.80;68.40
68922;DHT22;55959;51.244;5.724;2023-07-20T05:23:40;19.80;68.40
68922;DHT22;55959;51.244;5.724;2023-07-20T05:26:06;19.80;68.50
68922;DHT22;55959;51.244;5.724;2023-07-20T05:28:32;19.80;68.60
68922;DHT22;55959;51.244;5.724;2023-07-20T05:30:58;19.90;68.60
68922;DHT22;55959;51.244;5.724;2023-07-20T05:33:24;19.90;68.80
68922;DHT22;55959;51.244;5.724;2023-07-20T05:35:50;19.90;68.80
68922;DHT22;55959;51.244;5.724;2023-07-20T05:38:16;20.00;69.00
68922;DHT22;55959;51.244;5.724;2023-07-20T05:40:44;20.00;69.30
68922;DHT22;55959;51.244;5.724;2023-07-20T05:43:10;20.10;69.80
68922;DHT22;55959;51.244;5.724;2023-07-20T05:45:36;20.20;70.00
68922;DHT22;55959;51.244;5.724;2023-07-20T05:48:02;20.30;70.40
68922;DHT22;55959;51.244;5.724;2023-07-20T05:50:28;20.50;70.50
68922;DHT22;55959;51.244;5.724;2023-07-20T05:52:54;20.60;69.90
68922;DHT22;55959;51.244;5.724;2023-07-20T05:55:20;20.80;69.80
68922;DHT22;55959;51.244;5.724;2023-07-20T05:57:46;20.90;69.00
68922;DHT22;55959;51.244;5.724;2023-07-20T06:00:13;21.10;68.20
68922;DHT22;55959;51.244;5.724;2023-07-20T06:02:40;21.20;67.40
68922;DHT22;55959;51.244;5.724;2023-07-20T06:05:06;21.30;66.30
68922;DHT22;55959;51.244;5.724;2023-07-20T06:07:38;21.40;65.60
68922;DHT22;55959;51.244;5.724;2023-07-20T06:10:05;21.40;65.20
68922;DHT22;55959;51.244;5.724;2023-07-20T06:12:32;21.40;65.80
68922;DHT22;55959;51.244;5.724;2023-07-20T06:15:03;21.40;65.10
68922;DHT22;55959;51.244;5.724;2023-07-20T06:17:31;21.40;64.80
68922;DHT22;55959;51.244;5.724;2023-07-20T06:19:56;21.40;64.40
68922;DHT22;55959;51.244;5.724;2023-07-20T06:22:22;21.40;64.40
68922;DHT22;55959;51.244;5.724;2023-07-20T06:24:48;21.40;64.40
68922;DHT22;55959;51.244;5.724;2023-07-20T06:27:14;21.40;65.10
68922;DHT22;55959;51.244;5.724;2023-07-20T06:29:39;21.50;65.70
68922;DHT22;55959;51.244;5.724;2023-07-20T06:32:05;21.70;65.70
68922;DHT22;55959;51.244;5.724;2023-07-20T06:34:32;21.90;64.90
68922;DHT22;55959;51.244;5.724;2023-07-20T06:37:02;22.00;63.90
68922;DHT22;55959;51.244;5.724;2023-07-20T06:39:30;22.10;63.00
68922;DHT22;55959;51.244;5.724;2023-07-20T06:41:55;22.20;62.10
68922;DHT22;55959;51.244;5.724;2023-07-20T06:44:21;22.30;61.80
68922;DHT22;55959;51.244;5.724;2023-07-20T06:46:47;22.30;61.60
68922;DHT22;55959;51.244;5.724;2023-07-20T06:49:24;22.30;61.50
68922;DHT22;55959;51.244;5.724;2023-07-20T06:51:51;22.30;61.30
68922;DHT22;55959;51.244;5.724;2023-07-20T06:54:17;22.30;60.30
68922;DHT22;55959;51.244;5.724;2023-07-20T06:56:44;22.30;60.30
68922;DHT22;55959;51.244;5.724;2023-07-20T06:59:09;22.20;60.50
68922;DHT22;55959;51.244;5.724;2023-07-20T07:01:35;22.20;60.50
68922;DHT22;55959;51.244;5.724;2023-07-20T07:04:01;22.10;60.10
68922;DHT22;55959;51.244;5.724;2023-07-20T07:06:27;22.10;60.20
68922;DHT22;55959;51.244;5.724;2023-07-20T07:08:54;22.10;60.10
68922;DHT22;55959;51.244;5.724;2023-07-20T07:11:21;22.10;60.00
68922;DHT22;55959;51.244;5.724;2023-07-20T07:13:47;22.10;59.80
68922;DHT22;55959;51.244;5.724;2023-07-20T07:16:15;22.00;59.50
68922;DHT22;55959;51.244;5.724;2023-07-20T07:18:44;22.00;59.20
68922;DHT22;55959;51.244;5.724;2023-07-20T07:21:10;22.00;59.20
68922;DHT22;55959;51.244;5.724;2023-07-20T07:23:38;21.90;59.50
68922;DHT22;55959;51.244;5.724;2023-07-20T07:26:04;21.90;59.80
68922;DHT22;55959;51.244;5.724;2023-07-20T07:28:30;21.90;59.80
68922;DHT22;55959;51.244;5.724;2023-07-20T07:30:58;22.00;60.00
68922;DHT22;55959;51.244;5.724;2023-07-20T07:33:24;22.00;59.90
68922;DHT22;55959;51.244;5.724;2023-07-20T07:35:50;22.00;59.80
68922;DHT22;55959;51.244;5.724;2023-07-20T07:38:19;22.10;59.90
68922;DHT22;55959;51.244;5.724;2023-07-20T07:40:45;22.20;59.80
68922;DHT22;55959;51.244;5.724;2023-07-20T07:43:12;22.20;59.50
68922;DHT22;55959;51.244;5.724;2023-07-20T07:45:39;22.30;59.70
68922;DHT22;55959;51.244;5.724;2023-07-20T07:48:07;22.40;59.60
68922;DHT22;55959;51.244;5.724;2023-07-20T07:50:33;22.50;59.50
68922;DHT22;55959;51.244;5.724;2023-07-20T07:53:00;22.50;59.20
68922;DHT22;55959;51.244;5.724;2023-07-20T07:55:25;22.60;59.00
68922;DHT22;55959;51.244;5.724;2023-07-20T07:57:54;22.60;58.50
68922;DHT22;55959;51.244;5.724;2023-07-20T08:00:20;22.70;58.10
68922;DHT22;55959;51.244;5.724;2023-07-20T08:02:47;22.70;58.10
68922;DHT22;55959;51.244;5.724;2023-07-20T08:05:13;22.70;58.10
68922;DHT22;55959;51.244;5.724;2023-07-20T08:07:39;22.70;58.10
68922;DHT22;55959;51.244;5.724;2023-07-20T08:10:06;22.70;58.00
68922;DHT22;55959;51.244;5.724;2023-07-20T08:12:32;22.70;58.00
68922;DHT22;55959;51.244;5.724;2023-07-20T08:14:58;22.70;57.90
68922;DHT22;55959;51.244;5.724;2023-07-20T08:17:23;22.70;57.50
68922;DHT22;55959;51.244;5.724;2023-07-20T08:19:50;22.70;57.30
68922;DHT22;55959;51.244;5.724;2023-07-20T08:22:16;22.80;57.30
68922;DHT22;55959;51.244;5.724;2023-07-20T08:24:43;22.80;57.20
68922;DHT22;55959;51.244;5.724;2023-07-20T08:27:09;22.80;57.10
68922;DHT22;55959;51.244;5.724;2023-07-20T08:29:35;22.90;57.40
68922;DHT22;55959;51.244;5.724;2023-07-20T08:32:04;22.90;56.50
68922;DHT22;55959;51.244;5.724;2023-07-20T08:34:31;22.90;56.70
68922;DHT22;55959;51.244;5.724;2023-07-20T08:36:57;23.00;56.40
68922;DHT22;55959;51.244;5.724;2023-07-20T08:39:27;23.10;57.30
68922;DHT22;55959;51.244;5.724;2023-07-20T08:41:53;23.10;55.00
68922;DHT22;55959;51.244;5.724;2023-07-20T08:44:20;23.20;55.30
68922;DHT22;55959;51.244;5.724;2023-07-20T08:46:47;23.20;55.30
68922;DHT22;55959;51.244;5.724;2023-07-20T08:49:17;23.20;55.20
68922;DHT22;55959;51.244;5.724;2023-07-20T08:51:45;23.30;55.10
68922;DHT22;55959;51.244;5.724;2023-07-20T08:54:12;23.20;54.80
68922;DHT22;55959;51.244;5.724;2023-07-20T08:56:40;23.30;54.30
68922;DHT22;55959;51.244;5.724;2023-07-20T08:59:08;23.30;54.40
68922;DHT22;55959;51.244;5.724;2023-07-20T09:01:35;23.30;54.80
68922;DHT22;55959;51.244;5.724;2023-07-20T09:04:01;23.40;54.90
68922;DHT22;55959;51.244;5.724;2023-07-20T09:06:29;23.40;55.00
68922;DHT22;55959;51.244;5.724;2023-07-20T09:08:55;23.40;54.60
68922;DHT22;55959;51.244;5.724;2023-07-20T09:11:21;23.50;54.80
68922;DHT22;55959;51.244;5.724;2023-07-20T09:13:48;23.50;54.40
68922;DHT22;55959;51.244;5.724;2023-07-20T09:16:14;23.60;54.70
68922;DHT22;55959;51.244;5.724;2023-07-20T09:18:43;23.60;54.90
68922;DHT22;55959;51.244;5.724;2023-07-20T09:21:09;23.70;54.60
68922;DHT22;55959;51.244;5.724;2023-07-20T09:23:38;23.80;54.30
68922;DHT22;55959;51.244;5.724;2023-07-20T09:26:12;23.80;54.00
68922;DHT22;55959;51.244;5.724;2023-07-20T09:28:52;23.90;54.00
68922;DHT22;55959;51.244;5.724;2023-07-20T09:31:21;24.00;53.50
68922;DHT22;55959;51.244;5.724;2023-07-20T09:33:48;24.10;53.10
68922;DHT22;55959;51.244;5.724;2023-07-20T09:36:15;24.00;52.30
68922;DHT22;55959;51.244;5.724;2023-07-20T09:38:44;24.10;52.60
68922;DHT22;55959;51.244;5.724;2023-07-20T09:41:14;24.10;53.00
68922;DHT22;55959;51.244;5.724;2023-07-20T09:43:43;24.10;52.60
68922;DHT22;55959;51.244;5.724;2023-07-20T09:46:11;24.10;52.30
68922;DHT22;55959;51.244;5.724;2023-07-20T09:48:36;24.20;52.30
68922;DHT22;55959;51.244;5.724;2023-07-20T09:51:03;24.20;52.20
68922;DHT22;55959;51.244;5.724;2023-07-20T09:53:33;24.20;52.30
68922;DHT22;55959;51.244;5.724;2023-07-20T09:55:59;24.20;51.10
68922;DHT22;55959;51.244;5.724;2023-07-20T09:58:26;24.20;50.40
68922;DHT22;55959;51.244;5.724;2023-07-20T10:00:54;24.20;50.90
68922;DHT22;55959;51.244;5.724;2023-07-20T10:03:27;24.20;51.20
68922;DHT22;55959;51.244;5.724;2023-07-20T10:05:54;24.30;51.40
68922;DHT22;55959;51.244;5.724;2023-07-20T10:08:29;24.30;51.40
68922;DHT22;55959;51.244;5.724;2023-07-20T10:10:57;24.30;50.70
68922;DHT22;55959;51.244;5.724;2023-07-20T10:13:28;24.40;50.80
68922;DHT22;55959;51.244;5.724;2023-07-20T10:16:03;24.40;49.60
68922;DHT22;55959;51.244;5.724;2023-07-20T10:18:50;24.40;49.60
68922;DHT22;55959;51.244;5.724;2023-07-20T10:21:19;24.40;49.90
68922;DHT22;55959;51.244;5.724;2023-07-20T10:23:49;24.40;49.80
68922;DHT22;55959;51.244;5.724;2023-07-20T10:26:15;24.50;50.10
68922;DHT22;55959;51.244;5.724;2023-07-20T10:28:41;24.50;50.00
68922;DHT22;55959;51.244;5.724;2023-07-20T10:31:12;24.50;49.80
68922;DHT22;55959;51.244;5.724;2023-07-20T10:33:38;24.60;50.10
68922;DHT22;55959;51.244;5.724;2023-07-20T10:36:05;24.60;50.10
68922;DHT22;55959;51.244;5.724;2023-07-20T10:41:21;24.70;49.30
68922;DHT22;55959;51.244;5.724;2023-07-20T10:43:50;24.70;49.10
68922;DHT22;55959;51.244;5.724;2023-07-20T10:49:10;24.80;49.10
68922;DHT22;55959;51.244;5.724;2023-07-20T10:51:48;24.80;49.00
68922;DHT22;55959;51.244;5.724;2023-07-20T10:56:47;24.80;49.20
68922;DHT22;55959;51.244;5.724;2023-07-20T11:01:55;24.90;48.70
68922;DHT22;55959;51.244;5.724;2023-07-20T11:04:42;25.00;48.70
68922;DHT22;55959;51.244;5.724;2023-07-20T11:07:08;25.00;48.30
68922;DHT22;55959;51.244;5.724;2023-07-20T11:09:36;25.00;47.10
68922;DHT22;55959;51.244;5.724;2023-07-20T11:14:43;25.10;47.30
68922;DHT22;55959;51.244;5.724;2023-07-20T11:17:19;25.20;46.80
68922;DHT22;55959;51.244;5.724;2023-07-20T11:19:55;25.20;46.70
68922;DHT22;55959;51.244;5.724;2023-07-20T11:22:24;25.30;46.50
68922;DHT22;55959;51.244;5.724;2023-07-20T11:24:49;25.30;46.80
68922;DHT22;55959;51.244;5.724;2023-07-20T11:27:16;25.30;47.40
68922;DHT22;55959;51.244;5.724;2023-07-20T11:29:45;25.40;47.00
68922;DHT22;55959;51.244;5.724;2023-07-20T11:32:20;25.40;46.90
68922;DHT22;55959;51.244;5.724;2023-07-20T11:34:47;25.50;47.10
68922;DHT22;55959;51.244;5.724;2023-07-20T11:37:13;25.50;46.60
68922;DHT22;55959;51.244;5.724;2023-07-20T11:39:39;25.50;46.90
68922;DHT22;55959;51.244;5.724;2023-07-20T11:42:05;25.50;46.30
68922;DHT22;55959;51.244;5.724;2023-07-20T11:44:32;25.60;45.70
68922;DHT22;55959;51.244;5.724;2023-07-20T11:47:09;25.60;45.50
68922;DHT22;55959;51.244;5.724;2023-07-20T11:49:36;25.70;45.20
68922;DHT22;55959;51.244;5.724;2023-07-20T11:52:10;25.70;44.30
68922;DHT22;55959;51.244;5.724;2023-07-20T11:54:43;25.70;44.10
68922;DHT22;55959;51.244;5.724;2023-07-20T11:57:19;25.70;44.30
68922;DHT22;55959;51.244;5.724;2023-07-20T12:00:01;25.80;44.30
68922;DHT22;55959;51.244;5.724;2023-07-20T12:02:30;25.80;44.20
68922;DHT22;55959;51.244;5.724;2023-07-20T12:04:57;25.80;44.40
68922;DHT22;55959;51.244;5.724;2023-07-20T12:07:25;25.80;43.90
68922;DHT22;55959;51.244;5.724;2023-07-20T12:10:12;25.90;43.60
68922;DHT22;55959;51.244;5.724;2023-07-20T12:12:39;25.90;43.60
68922;DHT22;55959;51.244;5.724;2023-07-20T12:15:25;25.90;43.30
68922;DHT22;55959;51.244;5.724;2023-07-20T12:18:00;26.00;44.00
68922;DHT22;55959;51.244;5.724;2023-07-20T12:20:35;26.00;43.10
68922;DHT22;55959;51.244;5.724;2023-07-20T12:23:11;26.00;42.40
68922;DHT22;55959;51.244;5.724;2023-07-20T12:28:06;26.10;43.20
68922;DHT22;55959;51.244;5.724;2023-07-20T12:30:37;26.20;43.10
68922;DHT22;55959;51.244;5.724;2023-07-20T12:33:07;26.20;42.90
68922;DHT22;55959;51.244;5.724;2023-07-20T12:35:33;26.30;42.80
68922;DHT22;55959;51.244;5.724;2023-07-20T12:37:59;26.30;42.30
68922;DHT22;55959;51.244;5.724;2023-07-20T12:40:25;26.40;42.40
68922;DHT22;55959;51.244;5.724;2023-07-20T12:42:51;26.50;42.30
68922;DHT22;55959;51.244;5.724;2023-07-20T12:45:17;26.50;41.90
68922;DHT22;55959;51.244;5.724;2023-07-20T12:47:43;26.60;41.70
68922;DHT22;55959;51.244;5.724;2023-07-20T12:50:12;26.60;41.40
68922;DHT22;55959;51.244;5.724;2023-07-20T12:52:39;26.70;41.60
68922;DHT22;55959;51.244;5.724;2023-07-20T12:55:09;26.70;41.10
68922;DHT22;55959;51.244;5.724;2023-07-20T12:57:37;26.80;41.50
68922;DHT22;55959;51.244;5.724;2023-07-20T13:00:05;26.80;41.40
68922;DHT22;55959;51.244;5.724;2023-07-20T13:02:33;26.90;41.20
68922;DHT22;55959;51.244;5.724;2023-07-20T13:05:00;26.90;40.80
68922;DHT22;55959;51.244;5.724;2023-07-20T13:07:53;27.00;40.80
68922;DHT22;55959;51.244;5.724;2023-07-20T13:10:21;27.00;41.00
68922;DHT22;55959;51.244;5.724;2023-07-20T13:12:47;27.10;40.60
68922;DHT22;55959;51.244;5.724;2023-07-20T13:15:13;27.10;41.40
68922;DHT22;55959;51.244;5.724;2023-07-20T13:17:39;27.20;40.70
68922;DHT22;55959;51.244;5.724;2023-07-20T13:20:07;27.30;40.70
68922;DHT22;55959;51.244;5.724;2023-07-20T13:22:36;27.30;40.20
68922;DHT22;55959;51.244;5.724;2023-07-20T13:25:02;27.30;40.90
68922;DHT22;55959;51.244;5.724;2023-07-20T13:27:28;27.30;40.40
68922;DHT22;55959;51.244;5.724;2023-07-20T13:29:55;27.40;40.30
68922;DHT22;55959;51.244;5.724;2023-07-20T13:32:22;27.40;40.60
68922;DHT22;55959;51.244;5.724;2023-07-20T13:34:48;27.40;40.50
68922;DHT22;55959;51.244;5.724;2023-07-20T13:37:14;27.50;40.50
68922;DHT22;55959;51.244;5.724;2023-07-20T13:39:40;27.50;40.50
68922;DHT22;55959;51.244;5.724;2023-07-20T13:42:06;27.50;39.80
68922;DHT22;55959;51.244;5.724;2023-07-20T13:44:32;27.50;39.50
68922;DHT22;55959;51.244;5.724;2023-07-20T13:46:58;27.50;40.00
68922;DHT22;55959;51.244;5.724;2023-07-20T13:49:24;27.50;40.50
68922;DHT22;55959;51.244;5.724;2023-07-20T13:51:50;27.50;40.40
68922;DHT22;55959;51.244;5.724;2023-07-20T13:54:16;27.50;40.30
68922;DHT22;55959;51.244;5.724;2023-07-20T13:56:41;27.50;40.80
68922;DHT22;55959;51.244;5.724;2023-07-20T13:59:07;27.60;41.00
68922;DHT22;55959;51.244;5.724;2023-07-20T14:01:33;27.60;40.50
68922;DHT22;55959;51.244;5.724;2023-07-20T14:04:01;27.60;40.40
68922;DHT22;55959;51.244;5.724;2023-07-20T14:06:30;27.60;40.20
68922;DHT22;55959;51.244;5.724;2023-07-20T14:08:57;27.70;39.60
68922;DHT22;55959;51.244;5.724;2023-07-20T14:11:23;27.70;39.50
68922;DHT22;55959;51.244;5.724;2023-07-20T14:13:53;27.70;39.50
68922;DHT22;55959;51.244;5.724;2023-07-20T14:16:20;27.70;39.30
68922;DHT22;55959;51.244;5.724;2023-07-20T14:18:46;27.60;39.50
68922;DHT22;55959;51.244;5.724;2023-07-20T14:21:14;27.60;39.40
68922;DHT22;55959;51.244;5.724;2023-07-20T14:23:49;27.60;39.00
68922;DHT22;55959;51.244;5.724;2023-07-20T14:26:16;27.60;39.00
68922;DHT22;55959;51.244;5.724;2023-07-20T14:28:41;27.60;39.50
68922;DHT22;55959;51.244;5.724;2023-07-20T14:31:07;27.50;39.70
68922;DHT22;55959;51.244;5.724;2023-07-20T14:33:33;27.50;39.80
68922;DHT22;55959;51.244;5.724;2023-07-20T14:35:59;27.50;39.00
68922;DHT22;55959;51.244;5.724;2023-07-20T14:38:27;27.50;39.00
68922;DHT22;55959;51.244;5.724;2023-07-20T14:40:54;27.40;39.30
68922;DHT22;55959;51.244;5.724;2023-07-20T14:43:20;27.40;39.60
68922;DHT22;55959;51.244;5.724;2023-07-20T14:45:46;27.40;39.80
68922;DHT22;55959;51.244;5.724;2023-07-20T14:48:12;27.30;39.40
68922;DHT22;55959;51.244;5.724;2023-07-20T14:50:38;27.30;39.60
68922;DHT22;55959;51.244;5.724;2023-07-20T14:53:03;27.40;40.00
68922;DHT22;55959;51.244;5.724;2023-07-20T14:55:29;27.30;39.70
68922;DHT22;55959;51.244;5.724;2023-07-20T14:57:55;27.40;39.70
68922;DHT22;55959;51.244;5.724;2023-07-20T15:00:21;27.30;39.30
68922;DHT22;55959;51.244;5.724;2023-07-20T15:02:47;27.40;39.60
68922;DHT22;55959;51.244;5.724;2023-07-20T15:05:20;27.40;39.70
68922;DHT22;55959;51.244;5.724;2023-07-20T15:07:49;27.40;39.70
68922;DHT22;55959;51.244;5.724;2023-07-20T15:10:16;27.40;39.90
68922;DHT22;55959;51.244;5.724;2023-07-20T15:12:42;27.50;40.00
68922;DHT22;55959;51.244;5.724;2023-07-20T15:15:09;27.50;39.70
68922;DHT22;55959;51.244;5.724;2023-07-20T15:17:37;27.50;39.90
68922;DHT22;55959;51.244;5.724;2023-07-20T15:20:06;27.50;40.10
68922;DHT22;55959;51.244;5.724;2023-07-20T15:22:33;27.50;39.90
68922;DHT22;55959;51.244;5.724;2023-07-20T15:25:03;27.50;39.60
68922;DHT22;55959;51.244;5.724;2023-07-20T15:27:29;27.50;39.40
68922;DHT22;55959;51.244;5.724;2023-07-20T15:29:55;27.50;39.00
68922;DHT22;55959;51.244;5.724;2023-07-20T15:32:21;27.50;39.20
68922;DHT22;55959;51.244;5.724;2023-07-20T15:34:48;27.50;39.40
68922;DHT22;55959;51.244;5.724;2023-07-20T15:37:13;27.50;39.60
68922;DHT22;55959;51.244;5.724;2023-07-20T15:39:39;27.50;40.00
68922;DHT22;55959;51.244;5.724;2023-07-20T15:42:06;27.40;39.90
68922;DHT22;55959;51.244;5.724;2023-07-20T15:44:32;27.40;39.70
68922;DHT22;55959;51.244;5.724;2023-07-20T15:46:58;27.40;39.90
68922;DHT22;55959;51.244;5.724;2023-07-20T15:49:24;27.40;39.70
68922;DHT22;55959;51.244;5.724;2023-07-20T15:51:52;27.40;39.80
68922;DHT22;55959;51.244;5.724;2023-07-20T15:54:18;27.30;39.50